sensor_id;sensor_type;location;lat;lon;timestamp;temperature;humidity
18703;DHT22;9481;48.796;9.210;2023-03-01T00:01:59;7.40;36.20
18703;DHT22;9481;48.796;9.210;2023-03-01T00:04:24;7.30;36.20
18703;DHT22;9481;48.796;9.210;2023-03-01T00:06:50;7.30;36.30
18703;DHT22;9481;48.796;9.210;2023-03-01T00:09:17;7.30;36.40
18703;DHT22;9481;48.796;9.210;2023-03-01T00:11:42;7.30;36.30
18703;DHT22;9481;48.796;9.210;2023-03-01T00:14:08;7.30;36.40
18703;DHT22;9481;48.796;9.210;2023-03-01T00:16:39;7.40;36.50
18703;DHT22;9481;48.796;9.210;2023-03-01T00:19:10;7.40;37.10
18703;DHT22;9481;48.796;9.210;2023-03-01T00:21:39;7.40;36.60
18703;DHT22;9481;48.796;9.210;2023-03-01T00:24:05;7.40;36.40
18703;DHT22;9481;48.796;9.210;2023-03-01T00:26:32;7.50;36.60
18703;DHT22;9481;48.796;9.210;2023-03-01T00:28:58;7.50;36.50
18703;DHT22;9481;48.796;9.210;2023-03-01T00:31:29;7.50;36.50
18703;DHT22;9481;48.796;9.210;2023-03-01T00:33:58;7.50;36.50
18703;DHT22;9481;48.796;9.210;2023-03-01T00:36:28;7.50;36.50
18703;DHT22;9481;48.796;9.210;2023-03-01T00:38:58;7.50;36.50
18703;DHT22;9481;48.796;9.210;2023-03-01T00:41:24;7.50;36.50
18703;DHT22;9481;48.796;9.210;2023-03-01T00:43:55;7.50;36.50
18703;DHT22;9481;48.796;9.210;2023-03-01T00:46:23;7.50;36.60
18703;DHT22;9481;48.796;9.210;2023-03-01T00:48:51;7.50;36.60
18703;DHT22;9481;48.796;9.210;2023-03-01T00:51:19;7.50;36.50
18703;DHT22;9481;48.796;9.210;2023-03-01T00:53:47;7.50;36.60
18703;DHT22;9481;48.796;9.210;2023-03-01T00:56:16;7.50;36.60
18703;DHT22;9481;48.796;9.210;2023-03-01T00:58:42;7.50;36.60
18703;DHT22;9481;48.796;9.210;2023-03-01T01:01:16;7.50;36.60
18703;DHT22;9481;48.796;9.210;2023-03-01T01:03:55;7.50;36.80
18703;DHT22;9481;48.796;9.210;2023-03-01T01:06:28;7.50;36.70
18703;DHT22;9481;48.796;9.210;2023-03-01T01:08:59;7.50;36.70
18703;DHT22;9481;48.796;9.210;2023-03-01T01:11:27;7.40;36.60
18703;DHT22;9481;48.796;9.210;2023-03-01T01:13:54;7.40;36.60
18703;DHT22;9481;48.796;9.210;2023-03-01T01:16:22;7.40;36.60
18703;DHT22;9481;48.796;9.210;2023-03-01T01:18:49;7.40;36.70
18703;DHT22;9481;48.796;9.210;2023-03-01T01:21:17;7.40;36.70
18703;DHT22;9481;48.796;9.210;2023-03-01T01:23:45;7.40;36.70
18703;DHT22;9481;48.796;9.210;2023-03-01T01:26:19;7.40;36.80
18703;DHT22;9481;48.796;9.210;2023-03-01T01:28:47;7.30;36.80
18703;DHT22;9481;48.796;9.210;2023-03-01T01:31:14;7.30;36.90
18703;DHT22;9481;48.796;9.210;2023-03-01T01:33:41;7.30;36.90
18703;DHT22;9481;48.796;9.210;2023-03-01T01:36:07;7.30;37.00
18703;DHT22;9481;48.796;9.210;2023-03-01T01:38:34;7.20;37.00
18703;DHT22;9481;48.796;9.210;2023-03-01T01:41:01;7.20;37.00
18703;DHT22;9481;48.796;9.210;2023-03-01T01:43:29;7.20;37.00
18703;DHT22;9481;48.796;9.210;2023-03-01T01:46:02;7.10;36.90
18703;DHT22;9481;48.796;9.210;2023-03-01T01:48:41;7.10;37.00
18703;DHT22;9481;48.796;9.210;2023-03-01T01:51:18;7.10;37.20
18703;DHT22;9481;48.796;9.210;2023-03-01T01:53:50;7.10;37.20
18703;DHT22;9481;48.796;9.210;2023-03-01T01:56:18;7.10;37.20
18703;DHT22;9481;48.796;9.210;2023-03-01T01:58:46;7.00;37.20
18703;DHT22;9481;48.796;9.210;2023-03-01T02:01:13;7.00;37.20
18703;DHT22;9481;48.796;9.210;2023-03-01T02:03:40;7.00;37.30
18703;DHT22;9481;48.796;9.210;2023-03-01T02:06:20;7.00;37.40
18703;DHT22;9481;48.796;9.210;2023-03-01T02:08:57;7.00;37.50
18703;DHT22;9481;48.796;9.210;2023-03-01T02:11:27;7.00;37.20
18703;DHT22;9481;48.796;9.210;2023-03-01T02:13:55;7.00;37.40
18703;DHT22;9481;48.796;9.210;2023-03-01T02:16:20;7.00;37.40
18703;DHT22;9481;48.796;9.210;2023-03-01T02:18:46;7.00;37.40
18703;DHT22;9481;48.796;9.210;2023-03-01T02:24:32;7.00;37.80
18703;DHT22;9481;48.796;9.210;2023-03-01T02:27:06;7.10;37.90
18703;DHT22;9481;48.796;9.210;2023-03-01T02:29:32;7.00;37.40
18703;DHT22;9481;48.796;9.210;2023-03-01T02:32:00;7.00;37.50
18703;DHT22;9481;48.796;9.210;2023-03-01T02:34:28;7.00;37.50
18703;DHT22;9481;48.796;9.210;2023-03-01T02:37:00;7.00;37.60
18703;DHT22;9481;48.796;9.210;2023-03-01T02:39:48;7.00;37.60
18703;DHT22;9481;48.796;9.210;2023-03-01T02:42:22;7.00;38.00
18703;DHT22;9481;48.796;9.210;2023-03-01T02:44:51;7.00;37.70
18703;DHT22;9481;48.796;9.210;2023-03-01T02:47:17;7.00;37.60
18703;DHT22;9481;48.796;9.210;2023-03-01T02:49:42;7.00;37.60
18703;DHT22;9481;48.796;9.210;2023-03-01T02:57:39;7.00;37.70
18703;DHT22;9481;48.796;9.210;2023-03-01T03:00:11;7.00;37.90
18703;DHT22;9481;48.796;9.210;2023-03-01T03:02:45;7.00;37.90
18703;DHT22;9481;48.796;9.210;2023-03-01T03:05:15;7.00;37.90
18703;DHT22;9481;48.796;9.210;2023-03-01T03:07:47;7.00;37.90
18703;DHT22;9481;48.796;9.210;2023-03-01T03:10:26;7.00;37.80
18703;DHT22;9481;48.796;9.210;2023-03-01T03:13:00;7.00;38.20
18703;DHT22;9481;48.796;9.210;2023-03-01T03:15:35;7.00;38.00
18703;DHT22;9481;48.796;9.210;2023-03-01T03:18:02;7.00;37.80
18703;DHT22;9481;48.796;9.210;2023-03-01T03:20:29;7.00;37.80
18703;DHT22;9481;48.796;9.210;2023-03-01T03:22:57;7.00;37.90
18703;DHT22;9481;48.796;9.210;2023-03-01T03:25:24;7.00;38.00
18703;DHT22;9481;48.796;9.210;2023-03-01T03:27:53;7.00;38.00
18703;DHT22;9481;48.796;9.210;2023-03-01T03:30:23;6.90;38.10
18703;DHT22;9481;48.796;9.210;2023-03-01T03:32:51;6.90;38.10
18703;DHT22;9481;48.796;9.210;2023-03-01T03:35:30;6.90;38.10
18703;DHT22;9481;48.796;9.210;2023-03-01T03:38:00;7.00;38.70
18703;DHT22;9481;48.796;9.210;2023-03-01T03:40:38;7.00;38.40
18703;DHT22;9481;48.796;9.210;2023-03-01T03:43:07;7.00;38.40
18703;DHT22;9481;48.796;9.210;2023-03-01T03:45:35;7.00;38.40
18703;DHT22;9481;48.796;9.210;2023-03-01T03:48:03;7.00;38.40
18703;DHT22;9481;48.796;9.210;2023-03-01T03:50:31;7.00;38.50
18703;DHT22;9481;48.796;9.210;2023-03-01T03:52:59;7.00;38.50
18703;DHT22;9481;48.796;9.210;2023-03-01T03:55:26;7.00;38.60
18703;DHT22;9481;48.796;9.210;2023-03-01T03:57:57;7.00;38.60
18703;DHT22;9481;48.796;9.210;2023-03-01T04:00:27;7.00;38.60
18703;DHT22;9481;48.796;9.210;2023-03-01T04:02:53;7.00;38.60
18703;DHT22;9481;48.796;9.210;2023-03-01T04:05:23;7.00;38.70
18703;DHT22;9481;48.796;9.210;2023-03-01T04:07:49;7.10;38.70
18703;DHT22;9481;48.796;9.210;2023-03-01T04:10:17;7.10;38.60
18703;DHT22;9481;48.796;9.210;2023-03-01T04:12:44;7.10;38.60
18703;DHT22;9481;48.796;9.210;2023-03-01T04:15:11;7.10;38.60
18703;DHT22;9481;48.796;9.210;2023-03-01T04:17:44;7.10;38.60
18703;DHT22;9481;48.796;9.210;2023-03-01T04:20:12;7.10;38.60
18703;DHT22;9481;48.796;9.210;2023-03-01T04:22:43;7.10;38.70
18703;DHT22;9481;48.796;9.210;2023-03-01T04:25:12;7.00;38.70
18703;DHT22;9481;48.796;9.210;2023-03-01T04:27:40;7.10;38.70
18703;DHT22;9481;48.796;9.210;2023-03-01T04:30:07;7.10;38.60
18703;DHT22;9481;48.796;9.210;2023-03-01T04:32:33;7.00;38.60
18703;DHT22;9481;48.796;9.210;2023-03-01T04:34:59;7.10;38.70
18703;DHT22;9481;48.796;9.210;2023-03-01T04:37:25;7.00;38.60
18703;DHT22;9481;48.796;9.210;2023-03-01T04:39:51;7.00;38.60
18703;DHT22;9481;48.796;9.210;2023-03-01T04:42:18;7.00;38.50
18703;DHT22;9481;48.796;9.210;2023-03-01T04:44:44;7.00;38.70
18703;DHT22;9481;48.796;9.210;2023-03-01T04:47:10;7.00;38.80
18703;DHT22;9481;48.796;9.210;2023-03-01T04:49:36;7.00;38.70
18703;DHT22;9481;48.796;9.210;2023-03-01T04:52:02;7.00;38.80
18703;DHT22;9481;48.796;9.210;2023-03-01T04:54:29;7.00;39.00
18703;DHT22;9481;48.796;9.210;2023-03-01T04:56:57;7.00;38.90
18703;DHT22;9481;48.796;9.210;2023-03-01T04:59:23;7.00;38.90
18703;DHT22;9481;48.796;9.210;2023-03-01T05:01:50;7.00;38.90
18703;DHT22;9481;48.796;9.210;2023-03-01T05:04:16;7.00;38.90
18703;DHT22;9481;48.796;9.210;2023-03-01T05:06:42;7.00;39.00
18703;DHT22;9481;48.796;9.210;2023-03-01T05:09:08;7.00;39.00
18703;DHT22;9481;48.796;9.210;2023-03-01T05:11:34;7.00;39.00
18703;DHT22;9481;48.796;9.210;2023-03-01T05:14:05;7.00;39.70
18703;DHT22;9481;48.796;9.210;2023-03-01T05:16:32;7.00;39.10
18703;DHT22;9481;48.796;9.210;2023-03-01T05:18:59;7.10;39.20
18703;DHT22;9481;48.796;9.210;2023-03-01T05:21:25;7.10;39.10
18703;DHT22;9481;48.796;9.210;2023-03-01T05:23:51;7.10;39.00
18703;DHT22;9481;48.796;9.210;2023-03-01T05:26:19;7.10;39.00
18703;DHT22;9481;48.796;9.210;2023-03-01T05:28:47;7.10;39.10
18703;DHT22;9481;48.796;9.210;2023-03-01T05:31:13;7.10;39.10
18703;DHT22;9481;48.796;9.210;2023-03-01T05:33:40;7.00;39.00
18703;DHT22;9481;48.796;9.210;2023-03-01T05:36:07;7.00;39.10
18703;DHT22;9481;48.796;9.210;2023-03-01T05:38:35;7.00;39.10
18703;DHT22;9481;48.796;9.210;2023-03-01T05:41:01;7.00;39.10
18703;DHT22;9481;48.796;9.210;2023-03-01T05:43:30;7.00;39.00
18703;DHT22;9481;48.796;9.210;2023-03-01T05:45:59;7.10;39.30
18703;DHT22;9481;48.796;9.210;2023-03-01T05:48:25;7.00;39.20
18703;DHT22;9481;48.796;9.210;2023-03-01T05:50:51;7.00;39.20
18703;DHT22;9481;48.796;9.210;2023-03-01T05:53:18;7.00;39.20
18703;DHT22;9481;48.796;9.210;2023-03-01T05:55:47;7.00;39.20
18703;DHT22;9481;48.796;9.210;2023-03-01T05:58:15;7.00;39.30
18703;DHT22;9481;48.796;9.210;2023-03-01T06:00:43;7.00;39.30
18703;DHT22;9481;48.796;9.210;2023-03-01T06:03:13;7.00;39.30
18703;DHT22;9481;48.796;9.210;2023-03-01T06:05:41;7.00;39.30
18703;DHT22;9481;48.796;9.210;2023-03-01T06:08:08;7.10;39.40
18703;DHT22;9481;48.796;9.210;2023-03-01T06:10:35;7.00;39.40
18703;DHT22;9481;48.796;9.210;2023-03-01T06:13:00;7.10;39.50
18703;DHT22;9481;48.796;9.210;2023-03-01T06:15:26;7.10;39.50
18703;DHT22;9481;48.796;9.210;2023-03-01T06:17:53;7.10;39.60
18703;DHT22;9481;48.796;9.210;2023-03-01T06:20:25;7.10;39.50
18703;DHT22;9481;48.796;9.210;2023-03-01T06:22:53;7.10;39.60
18703;DHT22;9481;48.796;9.210;2023-03-01T06:25:21;7.20;39.50
18703;DHT22;9481;48.796;9.210;2023-03-01T06:27:48;7.20;39.50
18703;DHT22;9481;48.796;9.210;2023-03-01T06:30:16;7.20;39.50
18703;DHT22;9481;48.796;9.210;2023-03-01T06:32:43;7.20;39.50
18703;DHT22;9481;48.796;9.210;2023-03-01T06:35:11;7.20;39.50
18703;DHT22;9481;48.796;9.210;2023-03-01T06:37:39;7.20;39.20
18703;DHT22;9481;48.796;9.210;2023-03-01T06:40:07;7.20;39.50
18703;DHT22;9481;48.796;9.210;2023-03-01T06:42:35;7.30;39.70
18703;DHT22;9481;48.796;9.210;2023-03-01T06:45:02;7.30;39.80
18703;DHT22;9481;48.796;9.210;2023-03-01T06:47:28;7.30;39.90
18703;DHT22;9481;48.796;9.210;2023-03-01T06:49:55;7.40;40.50
18703;DHT22;9481;48.796;9.210;2023-03-01T06:52:21;7.40;39.80
18703;DHT22;9481;48.796;9.210;2023-03-01T06:54:46;7.50;39.80
18703;DHT22;9481;48.796;9.210;2023-03-01T06:57:12;7.50;39.70
18703;DHT22;9481;48.796;9.210;2023-03-01T06:59:37;7.50;39.70
18703;DHT22;9481;48.796;9.210;2023-03-01T07:02:03;7.50;39.60
18703;DHT22;9481;48.796;9.210;2023-03-01T07:04:29;7.60;39.70
18703;DHT22;9481;48.796;9.210;2023-03-01T07:06:55;7.60;42.00
18703;DHT22;9481;48.796;9.210;2023-03-01T07:09:23;7.80;44.60
18703;DHT22;9481;48.796;9.210;2023-03-01T07:11:49;8.10;44.80
18703;DHT22;9481;48.796;9.210;2023-03-01T07:14:15;8.40;44.10
18703;DHT22;9481;48.796;9.210;2023-03-01T07:16:41;8.60;43.00
18703;DHT22;9481;48.796;9.210;2023-03-01T07:19:07;8.90;41.80
18703;DHT22;9481;48.796;9.210;2023-03-01T07:21:33;9.00;40.90
18703;DHT22;9481;48.796;9.210;2023-03-01T07:23:58;9.10;40.20
18703;DHT22;9481;48.796;9.210;2023-03-01T07:26:24;9.10;39.70
18703;DHT22;9481;48.796;9.210;2023-03-01T07:28:50;9.10;39.30
18703;DHT22;9481;48.796;9.210;2023-03-01T07:31:15;9.10;39.00
18703;DHT22;9481;48.796;9.210;2023-03-01T07:33:41;9.10;38.90
18703;DHT22;9481;48.796;9.210;2023-03-01T07:36:07;9.10;38.90
18703;DHT22;9481;48.796;9.210;2023-03-01T07:38:34;9.10;38.90
18703;DHT22;9481;48.796;9.210;2023-03-01T07:41:01;9.10;38.90
18703;DHT22;9481;48.796;9.210;2023-03-01T07:43:29;9.10;38.90
18703;DHT22;9481;48.796;9.210;2023-03-01T07:46:00;9.20;38.80
18703;DHT22;9481;48.796;9.210;2023-03-01T07:48:28;9.20;38.80
18703;DHT22;9481;48.796;9.210;2023-03-01T07:50:57;9.20;38.60
18703;DHT22;9481;48.796;9.210;2023-03-01T07:53:24;9.20;38.50
18703;DHT22;9481;48.796;9.210;2023-03-01T07:55:49;9.20;38.40
18703;DHT22;9481;48.796;9.210;2023-03-01T07:58:15;9.30;38.40
18703;DHT22;9481;48.796;9.210;2023-03-01T08:00:40;9.30;38.30
18703;DHT22;9481;48.796;9.210;2023-03-01T08:03:06;9.30;38.20
18703;DHT22;9481;48.796;9.210;2023-03-01T08:05:32;9.40;38.40
18703;DHT22;9481;48.796;9.210;2023-03-01T08:07:57;9.40;38.30
18703;DHT22;9481;48.796;9.210;2023-03-01T08:10:24;9.50;38.30
18703;DHT22;9481;48.796;9.210;2023-03-01T08:12:51;9.50;38.40
18703;DHT22;9481;48.796;9.210;2023-03-01T08:15:18;9.60;38.20
18703;DHT22;9481;48.796;9.210;2023-03-01T08:17:44;9.70;38.30
18703;DHT22;9481;48.796;9.210;2023-03-01T08:20:10;9.70;38.20
18703;DHT22;9481;48.796;9.210;2023-03-01T08:22:37;9.80;38.20
18703;DHT22;9481;48.796;9.210;2023-03-01T08:25:03;9.80;38.00
18703;DHT22;9481;48.796;9.210;2023-03-01T08:27:29;9.90;38.00
18703;DHT22;9481;48.796;9.210;2023-03-01T08:29:55;10.00;37.30
18703;DHT22;9481;48.796;9.210;2023-03-01T08:32:20;10.00;37.20
18703;DHT22;9481;48.796;9.210;2023-03-01T08:34:47;10.10;37.00
18703;DHT22;9481;48.796;9.210;2023-03-01T08:37:13;10.20;36.90
18703;DHT22;9481;48.796;9.210;2023-03-01T08:39:39;10.30;36.80
18703;DHT22;9481;48.796;9.210;2023-03-01T08:42:04;10.30;36.60
18703;DHT22;9481;48.796;9.210;2023-03-01T08:44:30;10.30;36.60
18703;DHT22;9481;48.796;9.210;2023-03-01T08:46:56;10.40;36.60
18703;DHT22;9481;48.796;9.210;2023-03-01T08:49:22;10.50;36.60
18703;DHT22;9481;48.796;9.210;2023-03-01T08:51:49;10.50;36.60
18703;DHT22;9481;48.796;9.210;2023-03-01T08:54:17;10.60;36.50
18703;DHT22;9481;48.796;9.210;2023-03-01T08:56:45;10.70;36.40
18703;DHT22;9481;48.796;9.210;2023-03-01T08:59:13;10.70;36.30
18703;DHT22;9481;48.796;9.210;2023-03-01T09:01:40;10.80;36.20
18703;DHT22;9481;48.796;9.210;2023-03-01T09:04:09;10.90;36.40
18703;DHT22;9481;48.796;9.210;2023-03-01T09:06:35;10.90;36.30
18703;DHT22;9481;48.796;9.210;2023-03-01T09:09:04;11.00;36.10
18703;DHT22;9481;48.796;9.210;2023-03-01T09:11:30;11.10;35.90
18703;DHT22;9481;48.796;9.210;2023-03-01T09:13:56;11.10;35.80
18703;DHT22;9481;48.796;9.210;2023-03-01T09:16:23;11.20;35.80
18703;DHT22;9481;48.796;9.210;2023-03-01T09:18:53;11.30;35.80
18703;DHT22;9481;48.796;9.210;2023-03-01T09:21:21;11.40;35.70
18703;DHT22;9481;48.796;9.210;2023-03-01T09:23:48;11.40;35.70
18703;DHT22;9481;48.796;9.210;2023-03-01T09:26:20;11.60;35.70
18703;DHT22;9481;48.796;9.210;2023-03-01T09:28:49;11.60;35.70
18703;DHT22;9481;48.796;9.210;2023-03-01T09:31:17;11.70;35.50
18703;DHT22;9481;48.796;9.210;2023-03-01T09:33:49;11.80;35.30
18703;DHT22;9481;48.796;9.210;2023-03-01T09:36:22;11.90;35.20
18703;DHT22;9481;48.796;9.210;2023-03-01T09:38:50;12.00;35.20
18703;DHT22;9481;48.796;9.210;2023-03-01T09:41:36;12.10;35.50
18703;DHT22;9481;48.796;9.210;2023-03-01T09:44:27;12.20;35.40
18703;DHT22;9481;48.796;9.210;2023-03-01T09:47:27;12.40;35.20
18703;DHT22;9481;48.796;9.210;2023-03-01T09:50:18;12.50;35.20
18703;DHT22;9481;48.796;9.210;2023-03-01T09:55:57;12.80;34.90
18703;DHT22;9481;48.796;9.210;2023-03-01T10:01:27;13.10;34.70
18703;DHT22;9481;48.796;9.210;2023-03-01T10:04:02;13.20;34.70
18703;DHT22;9481;48.796;9.210;2023-03-01T10:09:37;13.50;34.10
18703;DHT22;9481;48.796;9.210;2023-03-01T10:12:15;13.60;34.40
18703;DHT22;9481;48.796;9.210;2023-03-01T10:15:02;13.80;34.00
18703;DHT22;9481;48.796;9.210;2023-03-01T10:17:58;13.90;33.80
18703;DHT22;9481;48.796;9.210;2023-03-01T10:23:17;14.10;33.40
18703;DHT22;9481;48.796;9.210;2023-03-01T10:29:09;14.40;32.80
18703;DHT22;9481;48.796;9.210;2023-03-01T10:34:38;14.50;33.40
18703;DHT22;9481;48.796;9.210;2023-03-01T10:37:19;14.60;32.60
18703;DHT22;9481;48.796;9.210;2023-03-01T10:40:06;14.70;32.50
18703;DHT22;9481;48.796;9.210;2023-03-01T10:42:39;14.80;32.30
18703;DHT22;9481;48.796;9.210;2023-03-01T10:45:38;14.90;32.60
18703;DHT22;9481;48.796;9.210;2023-03-01T10:48:14;15.10;32.10
18703;DHT22;9481;48.796;9.210;2023-03-01T10:50:51;15.20;32.70
18703;DHT22;9481;48.796;9.210;2023-03-01T10:53:26;15.30;32.70
18703;DHT22;9481;48.796;9.210;2023-03-01T10:56:02;15.50;32.50
18703;DHT22;9481;48.796;9.210;2023-03-01T10:58:41;15.60;31.80
18703;DHT22;9481;48.796;9.210;2023-03-01T11:06:39;16.00;30.90
18703;DHT22;9481;48.796;9.210;2023-03-01T11:09:18;16.20;31.60
18703;DHT22;9481;48.796;9.210;2023-03-01T11:11:51;16.30;31.50
18703;DHT22;9481;48.796;9.210;2023-03-01T11:14:22;16.50;31.70
18703;DHT22;9481;48.796;9.210;2023-03-01T11:17:11;16.70;31.80
18703;DHT22;9481;48.796;9.210;2023-03-01T11:19:40;16.90;31.10
18703;DHT22;9481;48.796;9.210;2023-03-01T11:22:15;17.10;31.50
18703;DHT22;9481;48.796;9.210;2023-03-01T11:24:51;17.30;30.40
18703;DHT22;9481;48.796;9.210;2023-03-01T11:27:26;17.40;30.20
18703;DHT22;9481;48.796;9.210;2023-03-01T11:33:33;17.70;30.10
18703;DHT22;9481;48.796;9.210;2023-03-01T11:35:50;17.90;30.40
18703;DHT22;9481;48.796;9.210;2023-03-01T11:38:25;18.20;30.10
18703;DHT22;9481;48.796;9.210;2023-03-01T11:40:58;18.40;30.30
18703;DHT22;9481;48.796;9.210;2023-03-01T11:43:56;18.70;30.50
18703;DHT22;9481;48.796;9.210;2023-03-01T11:49:29;19.50;30.00
18703;DHT22;9481;48.796;9.210;2023-03-01T11:52:19;20.00;28.80
18703;DHT22;9481;48.796;9.210;2023-03-01T11:55:16;20.50;29.20
18703;DHT22;9481;48.796;9.210;2023-03-01T11:58:36;20.90;29.40
18703;DHT22;9481;48.796;9.210;2023-03-01T12:09:24;22.40;28.10
18703;DHT22;9481;48.796;9.210;2023-03-01T12:23:55;23.60;25.60
18703;DHT22;9481;48.796;9.210;2023-03-01T12:29:32;23.60;25.50
18703;DHT22;9481;48.796;9.210;2023-03-01T12:32:28;23.60;25.80
18703;DHT22;9481;48.796;9.210;2023-03-01T12:45:00;24.20;24.30
18703;DHT22;9481;48.796;9.210;2023-03-01T12:48:01;24.50;23.60
18703;DHT22;9481;48.796;9.210;2023-03-01T12:50:42;24.80;24.00
18703;DHT22;9481;48.796;9.210;2023-03-01T12:53:22;25.00;24.40
18703;DHT22;9481;48.796;9.210;2023-03-01T12:55:51;25.20;23.60
18703;DHT22;9481;48.796;9.210;2023-03-01T13:01:53;25.50;23.10
18703;DHT22;9481;48.796;9.210;2023-03-01T13:04:50;25.60;22.70
18703;DHT22;9481;48.796;9.210;2023-03-01T13:08:05;25.80;23.10
18703;DHT22;9481;48.796;9.210;2023-03-01T13:10:47;26.10;22.80
18703;DHT22;9481;48.796;9.210;2023-03-01T13:13:25;26.30;22.60
18703;DHT22;9481;48.796;9.210;2023-03-01T13:15:53;26.40;22.20
18703;DHT22;9481;48.796;9.210;2023-03-01T13:20:58;26.70;22.60
18703;DHT22;9481;48.796;9.210;2023-03-01T13:23:37;26.70;22.30
18703;DHT22;9481;48.796;9.210;2023-03-01T13:26:12;26.80;21.90
18703;DHT22;9481;48.796;9.210;2023-03-01T13:28:55;26.80;21.40
18703;DHT22;9481;48.796;9.210;2023-03-01T13:33:54;26.90;22.90
18703;DHT22;9481;48.796;9.210;2023-03-01T13:39:29;27.00;21.90
18703;DHT22;9481;48.796;9.210;2023-03-01T13:41:58;27.10;21.80
18703;DHT22;9481;48.796;9.210;2023-03-01T13:44:36;27.20;22.00
18703;DHT22;9481;48.796;9.210;2023-03-01T13:55:00;27.50;20.50
18703;DHT22;9481;48.796;9.210;2023-03-01T13:57:33;27.60;21.20
18703;DHT22;9481;48.796;9.210;2023-03-01T14:00:01;27.60;20.40
18703;DHT22;9481;48.796;9.210;2023-03-01T14:02:28;27.70;20.60
18703;DHT22;9481;48.796;9.210;2023-03-01T14:04:58;27.70;20.40
18703;DHT22;9481;48.796;9.210;2023-03-01T14:07:26;27.70;20.20
18703;DHT22;9481;48.796;9.210;2023-03-01T14:10:02;27.80;20.20
18703;DHT22;9481;48.796;9.210;2023-03-01T14:12:55;27.80;19.80
18703;DHT22;9481;48.796;9.210;2023-03-01T14:16:11;27.80;19.90
18703;DHT22;9481;48.796;9.210;2023-03-01T14:19:17;27.80;19.70
18703;DHT22;9481;48.796;9.210;2023-03-01T14:21:47;27.60;19.50
18703;DHT22;9481;48.796;9.210;2023-03-01T14:24:21;27.50;20.00
18703;DHT22;9481;48.796;9.210;2023-03-01T14:26:49;27.40;19.70
18703;DHT22;9481;48.796;9.210;2023-03-01T14:29:34;27.20;19.90
18703;DHT22;9481;48.796;9.210;2023-03-01T14:32:20;27.10;19.50
18703;DHT22;9481;48.796;9.210;2023-03-01T14:34:50;27.00;19.50
18703;DHT22;9481;48.796;9.210;2023-03-01T14:37:26;26.90;20.00
18703;DHT22;9481;48.796;9.210;2023-03-01T14:39:58;26.70;19.50
18703;DHT22;9481;48.796;9.210;2023-03-01T14:42:28;26.50;19.90
18703;DHT22;9481;48.796;9.210;2023-03-01T14:44:57;26.30;19.80
18703;DHT22;9481;48.796;9.210;2023-03-01T14:47:32;26.10;19.90
18703;DHT22;9481;48.796;9.210;2023-03-01T14:50:21;25.80;19.90
18703;DHT22;9481;48.796;9.210;2023-03-01T14:52:54;25.50;19.80
18703;DHT22;9481;48.796;9.210;2023-03-01T14:57:58;24.40;19.80
18703;DHT22;9481;48.796;9.210;2023-03-01T15:00:27;23.70;19.90
18703;DHT22;9481;48.796;9.210;2023-03-01T15:02:56;23.10;20.20
18703;DHT22;9481;48.796;9.210;2023-03-01T15:05:30;22.40;20.50
18703;DHT22;9481;48.796;9.210;2023-03-01T15:07:59;21.90;20.90
18703;DHT22;9481;48.796;9.210;2023-03-01T15:10:32;21.50;21.30
18703;DHT22;9481;48.796;9.210;2023-03-01T15:13:14;21.30;21.60
18703;DHT22;9481;48.796;9.210;2023-03-01T15:15:48;21.10;22.10
18703;DHT22;9481;48.796;9.210;2023-03-01T15:18:22;21.00;22.30
18703;DHT22;9481;48.796;9.210;2023-03-01T15:20:52;21.10;22.50
18703;DHT22;9481;48.796;9.210;2023-03-01T15:23:24;21.20;22.70
18703;DHT22;9481;48.796;9.210;2023-03-01T15:25:54;21.30;22.60
18703;DHT22;9481;48.796;9.210;2023-03-01T15:28:37;21.40;22.60
18703;DHT22;9481;48.796;9.210;2023-03-01T15:31:23;21.50;22.60
18703;DHT22;9481;48.796;9.210;2023-03-01T15:34:08;21.50;22.50
18703;DHT22;9481;48.796;9.210;2023-03-01T15:36:48;21.50;22.40
18703;DHT22;9481;48.796;9.210;2023-03-01T15:39:38;21.40;22.30
18703;DHT22;9481;48.796;9.210;2023-03-01T15:45:19;21.10;22.30
18703;DHT22;9481;48.796;9.210;2023-03-01T15:47:52;20.80;22.30
18703;DHT22;9481;48.796;9.210;2023-03-01T15:50:34;20.60;22.40
18703;DHT22;9481;48.796;9.210;2023-03-01T15:53:06;20.30;22.60
18703;DHT22;9481;48.796;9.210;2023-03-01T15:55:36;20.10;22.50
18703;DHT22;9481;48.796;9.210;2023-03-01T15:58:06;19.70;22.40
18703;DHT22;9481;48.796;9.210;2023-03-01T16:00:37;19.50;22.70
18703;DHT22;9481;48.796;9.210;2023-03-01T16:03:04;19.10;22.80
18703;DHT22;9481;48.796;9.210;2023-03-01T16:05:33;18.80;22.90
18703;DHT22;9481;48.796;9.210;2023-03-01T16:08:00;18.40;23.10
18703;DHT22;9481;48.796;9.210;2023-03-01T16:10:28;18.10;23.40
18703;DHT22;9481;48.796;9.210;2023-03-01T16:12:55;17.80;23.60
18703;DHT22;9481;48.796;9.210;2023-03-01T16:17:50;17.20;24.00
18703;DHT22;9481;48.796;9.210;2023-03-01T16:20:17;16.90;24.20
18703;DHT22;9481;48.796;9.210;2023-03-01T16:22:44;16.70;24.20
18703;DHT22;9481;48.796;9.210;2023-03-01T16:25:12;16.50;24.40
18703;DHT22;9481;48.796;9.210;2023-03-01T16:27:45;16.30;24.60
18703;DHT22;9481;48.796;9.210;2023-03-01T16:30:16;16.10;24.80
18703;DHT22;9481;48.796;9.210;2023-03-01T16:32:45;15.90;24.80
18703;DHT22;9481;48.796;9.210;2023-03-01T16:35:13;15.70;25.50
18703;DHT22;9481;48.796;9.210;2023-03-01T16:37:41;15.50;25.10
18703;DHT22;9481;48.796;9.210;2023-03-01T16:40:20;15.40;25.10
18703;DHT22;9481;48.796;9.210;2023-03-01T16:42:47;15.20;25.50
18703;DHT22;9481;48.796;9.210;2023-03-01T16:45:13;15.00;25.40
18703;DHT22;9481;48.796;9.210;2023-03-01T16:47:39;14.90;25.60
18703;DHT22;9481;48.796;9.210;2023-03-01T16:50:05;14.80;25.60
18703;DHT22;9481;48.796;9.210;2023-03-01T16:52:31;14.70;25.80
18703;DHT22;9481;48.796;9.210;2023-03-01T16:54:56;14.50;25.90
18703;DHT22;9481;48.796;9.210;2023-03-01T16:57:22;14.40;26.00
18703;DHT22;9481;48.796;9.210;2023-03-01T16:59:51;14.40;26.80
18703;DHT22;9481;48.796;9.210;2023-03-01T17:02:18;14.30;26.30
18703;DHT22;9481;48.796;9.210;2023-03-01T17:04:50;14.20;26.30
18703;DHT22;9481;48.796;9.210;2023-03-01T17:07:17;14.10;26.50
18703;DHT22;9481;48.796;9.210;2023-03-01T17:09:43;14.00;26.40
18703;DHT22;9481;48.796;9.210;2023-03-01T17:12:11;14.00;26.60
18703;DHT22;9481;48.796;9.210;2023-03-01T17:14:37;13.90;26.70
18703;DHT22;9481;48.796;9.210;2023-03-01T17:17:04;13.80;26.60
18703;DHT22;9481;48.796;9.210;2023-03-01T17:19:29;13.80;26.80
18703;DHT22;9481;48.796;9.210;2023-03-01T17:21:57;13.70;26.90
18703;DHT22;9481;48.796;9.210;2023-03-01T17:24:22;13.70;26.90
18703;DHT22;9481;48.796;9.210;2023-03-01T17:26:48;13.60;27.00
18703;DHT22;9481;48.796;9.210;2023-03-01T17:29:14;13.60;27.10
18703;DHT22;9481;48.796;9.210;2023-03-01T17:31:42;13.50;27.10
18703;DHT22;9481;48.796;9.210;2023-03-01T17:34:08;13.40;27.20
18703;DHT22;9481;48.796;9.210;2023-03-01T17:36:33;13.40;27.30
18703;DHT22;9481;48.796;9.210;2023-03-01T17:39:09;13.40;27.50
18703;DHT22;9481;48.796;9.210;2023-03-01T17:41:35;13.30;27.40
18703;DHT22;9481;48.796;9.210;2023-03-01T17:44:01;13.30;27.50
18703;DHT22;9481;48.796;9.210;2023-03-01T17:46:27;13.30;27.60
18703;DHT22;9481;48.796;9.210;2023-03-01T17:48:53;13.20;27.60
18703;DHT22;9481;48.796;9.210;2023-03-01T17:51:19;13.20;27.70
18703;DHT22;9481;48.796;9.210;2023-03-01T17:53:45;13.10;27.80
18703;DHT22;9481;48.796;9.210;2023-03-01T17:56:10;13.10;27.80
18703;DHT22;9481;48.796;9.210;2023-03-01T17:58:37;13.10;28.00